Time;durP1;ratioP1;P1;durP2;ratioP2;P2;SDS_P1;SDS_P2;PMS_P1;PMS_P2;Temp;Humidity;BMP_temperature;BMP_pressure;BME280_temperature;BME280_humidity;BME280_pressure;Samples;Min_cycle;Max_cycle;Signal;HPM_P1;HPM_P2
2023/02/23 00:01:51;;;;;;;0.57;0.57;;;;;;;6.22;78.58;96880.53;5023880;28;20095;-55
2023/02/23 00:04:18;;;;;;;0.50;0.50;;;;;;;6.23;79.32;96882.13;5022409;28;20054;-54
2023/02/23 00:06:45;;;;;;;0.52;0.52;;;;;;;6.29;78.46;96880.78;5021178;28;20124;-56
2023/02/23 00:09:21;;;;;;;0.50;0.50;;;;;;;6.22;78.33;96874.22;5024051;28;20051;-55
2023/02/23 00:11:53;;;;;;;0.50;0.50;;;;;;;6.27;78.64;96885.81;5027265;28;20091;-56
2023/02/23 00:14:23;;;;;;;0.50;0.50;;;;;;;6.28;78.89;96879.16;5026805;28;20436;-54
2023/02/23 00:16:50;;;;;;;0.50;0.50;;;;;;;5.94;78.87;96857.69;5027043;28;20111;-54
2023/02/23 00:19:16;;;;;;;0.50;0.50;;;;;;;6.15;79.69;96885.81;5026988;28;20440;-56
2023/02/23 00:21:44;;;;;;;0.50;0.50;;;;;;;5.95;80.29;96882.06;5027192;28;20059;-54
2023/02/23 00:24:14;;;;;;;0.50;0.50;;;;;;;6.05;80.42;96881.59;5027294;28;20500;-56
2023/02/23 00:26:41;;;;;;;0.50;0.50;;;;;;;6.05;79.92;96886.31;5026651;28;20933;-54
2023/02/23 00:29:12;;;;;;;0.50;0.50;;;;;;;5.97;79.96;96885.25;5027069;28;20072;-56
2023/02/23 00:31:38;;;;;;;0.50;0.50;;;;;;;5.90;80.89;96897.97;5026486;28;20049;-55
2023/02/23 00:34:06;;;;;;;0.57;0.57;;;;;;;5.91;80.62;96892.13;5027234;28;20081;-55
2023/02/23 00:36:34;;;;;;;0.50;0.50;;;;;;;5.72;81.07;96904.81;5024876;28;20544;-54
2023/02/23 00:39:10;;;;;;;0.52;0.52;;;;;;;5.86;80.40;96894.31;5026852;28;20053;-55
2023/02/23 00:41:37;;;;;;;0.50;0.50;;;;;;;5.72;80.36;96896.59;5026430;28;20127;-54
2023/02/23 00:44:04;;;;;;;0.50;0.50;;;;;;;5.60;80.85;96897.38;5027173;28;20444;-55
2023/02/23 00:46:30;;;;;;;0.50;0.50;;;;;;;5.59;81.15;96897.72;5026544;28;20060;-55
2023/02/23 00:48:58;;;;;;;0.50;0.50;;;;;;;5.70;79.68;96901.59;5026199;28;20045;-54
2023/02/23 00:51:29;;;;;;;0.50;0.50;;;;;;;5.49;80.32;96882.47;5025716;28;20140;-55
2023/02/23 00:53:58;;;;;;;0.50;0.50;;;;;;;5.56;79.54;96895.66;5026313;28;20131;-55
2023/02/23 00:56:26;;;;;;;0.50;0.50;;;;;;;5.40;79.81;96880.97;5025849;28;20572;-55
2023/02/23 00:58:53;;;;;;;0.50;0.50;;;;;;;5.45;79.91;96898.03;5025553;28;20076;-55
2023/02/23 01:01:21;;;;;;;0.50;0.50;;;;;;;5.49;79.90;96900.88;5026458;28;20114;-54
2023/02/23 01:03:48;;;;;;;0.50;0.50;;;;;;;5.52;79.39;96900.19;5026181;28;20053;-55
2023/02/23 01:06:16;;;;;;;0.50;0.50;;;;;;;4.99;79.99;96798.75;5025645;28;20065;-55
2023/02/23 01:08:47;;;;;;;0.50;0.50;;;;;;;5.54;79.59;96897.94;5025980;28;20061;-57
2023/02/23 01:11:20;;;;;;;0.43;0.43;;;;;;;5.51;80.16;96898.59;5026018;28;20053;-54
2023/02/23 01:13:51;;;;;;;0.45;0.45;;;;;;;5.47;80.79;96892.22;5041007;28;20100;-55
2023/02/23 01:16:20;;;;;;;0.50;0.50;;;;;;;5.28;80.24;96873.50;5025466;28;20065;-56
2023/02/23 01:18:47;;;;;;;0.50;0.50;;;;;;;5.40;80.42;96897.44;5026068;28;20140;-54
2023/02/23 01:21:17;;;;;;;0.50;0.50;;;;;;;5.38;80.48;96894.22;5025388;28;20076;-55
2023/02/23 01:23:45;;;;;;;0.50;0.50;;;;;;;5.43;79.71;96891.28;5025940;28;20568;-55
2023/02/23 01:26:16;;;;;;;0.50;0.50;;;;;;;5.17;80.51;96849.59;5025268;28;20594;-54
2023/02/23 01:28:42;;;;;;;0.50;0.50;;;;;;;5.49;79.42;96895.38;5023520;28;20057;-54
2023/02/23 01:31:09;;;;;;;0.50;0.50;;;;;;;5.09;77.30;96869.69;5024322;28;20654;-55
2023/02/23 01:33:36;;;;;;;0.50;0.50;;;;;;;5.16;77.08;96897.38;5025702;28;20053;-54
2023/02/23 01:36:03;;;;;;;0.40;0.40;;;;;;;4.56;77.89;96821.16;5025075;28;20266;-55
2023/02/23 01:38:29;;;;;;;0.50;0.50;;;;;;;5.00;79.09;96910.13;5025157;28;20562;-56
2023/02/23 01:40:56;;;;;;;0.50;0.50;;;;;;;4.78;80.02;96885.81;5025620;28;20124;-55
2023/02/23 01:43:26;;;;;;;0.40;0.40;;;;;;;4.76;82.01;96899.09;5025347;28;20054;-57
2023/02/23 01:45:59;;;;;;;0.50;0.50;;;;;;;4.41;82.47;96866.44;5025409;28;20141;-55
2023/02/23 01:48:29;;;;;;;0.47;0.47;;;;;;;4.71;82.04;96910.25;5025029;28;20053;-58
2023/02/23 01:51:14;;;;;;;0.40;0.40;;;;;;;4.02;83.94;96868.84;5025501;28;20271;-55
2023/02/23 01:53:47;;;;;;;0.50;0.50;;;;;;;3.91;85.33;96852.00;5025852;28;20057;-54
2023/02/23 01:56:20;;;;;;;0.43;0.43;;;;;;;4.34;85.88;96899.09;5025111;28;20088;-55
2023/02/23 01:58:53;;;;;;;0.50;0.50;;;;;;;4.49;84.68;96909.44;5025300;28;20327;-54
2023/02/23 02:01:21;;;;;;;0.40;0.40;;;;;;;4.53;84.95;96907.66;5023605;28;20045;-54
2023/02/23 02:04:01;;;;;;;0.43;0.43;;;;;;;4.61;83.85;96906.78;5025294;28;20059;-54
2023/02/23 02:06:28;;;;;;;0.50;0.50;;;;;;;4.60;84.23;96907.91;5023633;28;20059;-56
2023/02/23 02:09:09;;;;;;;0.50;0.50;;;;;;;4.26;84.50;96852.53;5024586;28;20053;-55
2023/02/23 02:11:37;;;;;;;0.50;0.50;;;;;;;4.59;83.92;96906.31;5025133;28;20057;-54
2023/02/23 02:14:29;;;;;;;0.50;0.50;;;;;;;4.66;83.96;96914.78;5024893;28;20046;-55
2023/02/23 02:17:19;;;;;;;0.50;0.50;;;;;;;4.69;83.44;96914.13;5022355;28;20057;-56
2023/02/23 02:20:11;;;;;;;0.50;0.50;;;;;;;4.14;83.75;96844.28;5039816;28;20119;-55
2023/02/23 02:23:21;;;;;;;0.50;0.50;;;;;;;4.59;84.86;96911.81;5024342;28;20499;-55
2023/02/23 02:25:51;;;;;;;0.50;0.50;;;;;;;4.51;84.31;96909.94;5025033;28;20064;-55
2023/02/23 02:28:21;;;;;;;0.40;0.40;;;;;;;4.55;83.77;96916.34;5024459;28;20128;-54
2023/02/23 02:31:22;;;;;;;0.50;0.50;;;;;;;4.64;83.12;96913.53;5023768;28;20054;-54
2023/02/23 02:34:08;;;;;;;0.50;0.50;;;;;;;4.55;83.40;96910.84;5023590;28;20057;-54
2023/02/23 02:36:44;;;;;;;0.40;0.40;;;;;;;4.47;83.57;96911.72;5024419;28;20127;-54
2023/02/23 02:39:35;;;;;;;0.40;0.40;;;;;;;4.47;83.49;96908.97;5024565;28;20053;-54
2023/02/23 02:42:24;;;;;;;0.50;0.50;;;;;;;4.24;84.27;96915.94;5023054;28;20085;-55
2023/02/23 02:45:45;;;;;;;0.40;0.40;;;;;;;4.21;85.25;96916.59;5024540;28;20076;-55
2023/02/23 02:48:29;;;;;;;0.50;0.50;;;;;;;4.10;86.01;96915.38;5020621;28;20160;-54
2023/02/23 02:51:08;;;;;;;0.50;0.50;;;;;;;3.94;87.40;96913.53;5023081;28;20045;-54
2023/02/23 02:53:45;;;;;;;0.40;0.40;;;;;;;3.98;87.55;96906.28;5022718;28;20138;-55
2023/02/23 02:56:18;;;;;;;0.40;0.40;;;;;;;4.03;87.45;96915.09;5022501;28;20119;-54
2023/02/23 02:58:46;;;;;;;0.45;0.45;;;;;;;4.09;87.42;96915.72;5024144;28;20089;-55
2023/02/23 04:17:35;;;;;;;0.50;0.50;;;;;;;3.80;88.61;96940.34;5026199;28;20062;-55
2023/02/23 04:20:03;;;;;;;0.50;0.50;;;;;;;3.87;88.12;96938.69;5026806;28;20512;-54
2023/02/23 04:22:30;;;;;;;0.40;0.40;;;;;;;1.58;88.21;96578.25;5027619;28;20057;-54
2023/02/23 04:24:56;;;;;;;0.43;0.43;;;;;;;3.67;88.15;96906.56;5026068;28;20140;-55
2023/02/23 04:27:23;;;;;;;0.40;0.40;;;;;;;3.89;88.15;96938.41;5027141;28;20073;-54
2023/02/23 04:29:50;;;;;;;0.40;0.40;;;;;;;3.87;88.60;96938.69;5026711;28;20073;-55
2023/02/23 04:32:18;;;;;;;0.40;0.40;;;;;;;3.89;88.26;96930.97;5026454;28;20092;-55
2023/02/23 04:34:45;;;;;;;0.40;0.40;;;;;;;3.71;88.23;96913.03;5024644;28;20084;-54
2023/02/23 04:37:13;;;;;;;0.50;0.50;;;;;;;3.90;88.12;96937.25;5026970;28;20500;-54
2023/02/23 04:39:41;;;;;;;0.40;0.40;;;;;;;3.80;88.03;96911.03;5026298;28;20092;-54
2023/02/23 04:42:09;;;;;;;0.40;0.40;;;;;;;3.98;87.31;96934.44;5024405;28;20054;-55
2023/02/23 04:44:35;;;;;;;0.40;0.40;;;;;;;4.00;86.25;96923.97;5021855;28;20056;-54
2023/02/23 04:47:02;;;;;;;0.40;0.40;;;;;;;3.92;87.38;96946.75;5026921;28;20222;-53
2023/02/23 04:49:29;;;;;;;0.45;0.45;;;;;;;3.88;87.85;96940.31;5025873;28;20064;-54
2023/02/23 04:51:56;;;;;;;0.43;0.43;;;;;;;3.67;88.36;96923.00;5026302;28;20069;-54
2023/02/23 04:54:23;;;;;;;0.40;0.40;;;;;;;3.27;89.11;96869.72;5026602;28;20419;-55
2023/02/23 04:56:49;;;;;;;0.50;0.50;;;;;;;3.87;88.47;96941.44;5025234;28;20107;-54
2023/02/23 04:59:16;;;;;;;0.40;0.40;;;;;;;3.91;87.60;96945.16;5026069;28;20678;-54
2023/02/23 05:01:43;;;;;;;0.40;0.40;;;;;;;3.70;87.44;96908.66;5026254;28;20842;-54
2023/02/23 05:04:10;;;;;;;0.50;0.50;;;;;;;3.51;87.40;96900.03;5026011;28;20064;-53
2023/02/23 05:06:37;;;;;;;0.47;0.47;;;;;;;3.37;86.98;96868.56;5025815;28;20050;-55
2023/02/23 05:09:05;;;;;;;0.50;0.50;;;;;;;3.77;87.76;96944.56;5026024;28;20057;-55
2023/02/23 05:11:32;;;;;;;0.40;0.40;;;;;;;3.82;88.75;96951.78;5026018;28;20143;-55
2023/02/23 05:13:59;;;;;;;0.40;0.40;;;;;;;3.64;87.96;96956.53;5025690;28;20524;-55
2023/02/23 05:16:25;;;;;;;0.40;0.40;;;;;;;3.66;87.23;96970.72;5026050;28;20543;-56
2023/02/23 05:18:52;;;;;;;0.40;0.40;;;;;;;3.16;86.78;96906.78;5026176;28;20114;-55
2023/02/23 05:21:19;;;;;;;0.40;0.40;;;;;;;3.26;85.40;96922.84;5026111;28;20072;-55
2023/02/23 05:23:46;;;;;;;0.50;0.50;;;;;;;3.69;85.55;96970.06;5026291;28;20115;-56
2023/02/23 05:26:13;;;;;;;0.40;0.40;;;;;;;3.61;85.85;96957.19;5025564;28;20111;-56
2023/02/23 05:28:41;;;;;;;0.50;0.50;;;;;;;3.66;87.43;96959.75;5025749;28;20045;-55
2023/02/23 05:31:09;;;;;;;0.40;0.40;;;;;;;3.41;87.78;96908.63;5025476;28;20054;-56
2023/02/23 05:33:44;;;;;;;0.50;0.50;;;;;;;3.94;87.35;96977.38;5025405;28;20425;-55
2023/02/23 05:36:15;;;;;;;0.50;0.50;;;;;;;3.95;87.40;96976.22;5025292;28;20057;-54
2023/02/23 05:38:43;;;;;;;0.40;0.40;;;;;;;3.94;87.42;96982.84;5025599;28;20055;-55
2023/02/23 05:41:13;;;;;;;0.43;0.43;;;;;;;3.83;88.17;96986.25;5025286;28;20053;-56
2023/02/23 05:43:41;;;;;;;0.40;0.40;;;;;;;3.59;87.84;96920.34;5024279;28;20077;-55
2023/02/23 05:46:09;;;;;;;0.40;0.40;;;;;;;3.64;87.34;96931.88;5025074;28;20053;-54
2023/02/23 05:48:36;;;;;;;0.40;0.40;;;;;;;4.11;87.26;96993.72;5023995;28;20057;-55
2023/02/23 05:51:04;;;;;;;0.50;0.50;;;;;;;3.75;86.44;96922.19;5025360;28;20049;-54
2023/02/23 05:53:31;;;;;;;0.43;0.43;;;;;;;4.31;86.71;96992.16;5025564;28;20391;-56
2023/02/23 05:55:58;;;;;;;0.50;0.50;;;;;;;3.96;86.61;96925.78;5024723;28;20084;-55
2023/02/23 05:58:25;;;;;;;0.50;0.50;;;;;;;4.24;86.46;96962.53;5025223;28;20077;-55
2023/02/23 06:00:51;;;;;;;0.45;0.45;;;;;;;4.76;85.03;97006.88;5023346;28;20485;-56
2023/02/23 06:03:18;;;;;;;0.50;0.50;;;;;;;4.68;83.76;96995.97;5024586;28;20135;-56
2023/02/23 06:05:53;;;;;;;0.43;0.43;;;;;;;4.91;84.32;97016.44;5024640;28;20565;-55
2023/02/23 06:08:20;;;;;;;0.60;0.60;;;;;;;5.14;83.75;97007.53;5023052;28;20127;-56
2023/02/23 06:10:46;;;;;;;0.50;0.50;;;;;;;4.86;82.34;96975.47;5023848;28;20057;-55
2023/02/23 06:13:14;;;;;;;0.45;0.45;;;;;;;4.53;81.82;97006.41;5023334;28;20532;-55
2023/02/23 06:15:42;;;;;;;0.50;0.50;;;;;;;5.08;81.95;97021.78;5023651;28;20145;-55
2023/02/23 06:18:09;;;;;;;0.50;0.50;;;;;;;5.36;81.35;97031.09;5024521;28;20054;-55
2023/02/23 06:20:37;;;;;;;0.52;0.52;;;;;;;5.61;81.25;97021.81;5024237;28;20788;-55
2023/02/23 06:23:06;;;;;;;0.50;0.50;;;;;;;5.79;80.05;97031.47;5023904;28;20061;-55
2023/02/23 06:25:33;;;;;;;0.55;0.55;;;;;;;5.78;79.14;97029.88;5024276;28;20500;-55
2023/02/23 06:27:59;;;;;;;0.50;0.50;;;;;;;5.02;78.52;96907.88;5023123;28;20364;-56
2023/02/23 06:30:26;;;;;;;0.50;0.50;;;;;;;5.72;76.69;96982.53;5022753;28;20297;-56
2023/02/23 06:32:53;;;;;;;0.50;0.50;;;;;;;5.97;76.79;97008.19;5022321;28;20045;-56
2023/02/23 06:35:19;;;;;;;0.50;0.50;;;;;;;5.87;77.63;96984.69;5023216;28;20045;-56
2023/02/23 06:37:46;;;;;;;0.50;0.50;;;;;;;6.18;77.51;97032.84;5022244;28;20049;-56
2023/02/23 06:40:13;;;;;;;0.52;0.52;;;;;;;6.41;76.03;97003.72;5024097;28;20373;-56
2023/02/23 06:42:39;;;;;;;0.50;0.50;;;;;;;6.35;76.28;97033.44;5024299;28;20057;-56
2023/02/23 06:45:07;;;;;;;0.60;0.60;;;;;;;6.40;77.50;97035.97;5022618;28;20608;-56
2023/02/23 06:47:33;;;;;;;0.60;0.60;;;;;;;6.72;76.29;97032.25;5024339;28;20128;-55
2023/02/23 06:50:02;;;;;;;0.60;0.60;;;;;;;6.94;75.45;97034.50;5021817;28;20124;-56
2023/02/23 06:52:29;;;;;;;0.60;0.60;;;;;;;7.07;74.12;97000.31;5010482;28;20053;-55
2023/02/23 06:54:56;;;;;;;0.60;0.60;;;;;;;6.86;73.56;96972.13;5023393;28;20055;-57
2023/02/23 06:57:22;;;;;;;0.60;0.60;;;;;;;7.59;72.62;97034.09;5021620;28;20072;-60
2023/02/23 06:59:49;;;;;;;0.60;0.60;;;;;;;7.88;71.80;97040.38;5023542;28;20060;-56
2023/02/23 07:02:16;;;;;;;0.70;0.70;;;;;;;7.76;72.03;96982.56;5022834;28;20165;-56
2023/02/23 07:04:43;;;;;;;0.60;0.60;;;;;;;8.33;70.74;97029.78;5019677;28;20476;-60
2023/02/23 07:07:11;;;;;;;0.60;0.60;;;;;;;7.90;69.84;96967.19;5022617;28;20057;-57
2023/02/23 07:09:39;;;;;;;0.70;0.70;;;;;;;6.29;70.56;96699.25;5003118;28;20131;-58
2023/02/23 07:12:06;;;;;;;0.80;0.80;;;;;;;8.27;71.79;97009.13;5023301;28;20419;-58
2023/02/23 07:14:33;;;;;;;0.70;0.70;;;;;;;8.54;70.97;97031.13;5021698;28;20053;-55
2023/02/23 07:17:00;;;;;;;0.80;0.80;;;;;;;8.41;70.50;96984.66;5010811;28;20052;-58
2023/02/23 07:19:27;;;;;;;0.80;0.80;;;;;;;9.00;69.60;97035.78;5022884;28;20041;-58
2023/02/23 07:21:54;;;;;;;0.73;0.73;;;;;;;9.05;70.54;97037.44;5020332;28;20050;-56
2023/02/23 07:24:21;;;;;;;0.80;0.80;;;;;;;9.19;70.56;97029.47;5021362;28;20507;-55
2023/02/23 07:26:48;;;;;;;0.70;0.70;;;;;;;9.27;71.68;97014.66;5023317;28;20434;-58
2023/02/23 07:29:15;;;;;;;0.80;0.80;;;;;;;9.48;71.50;97020.63;5016120;28;20050;-59
2023/02/23 07:31:42;;;;;;;0.80;0.80;;;;;;;9.25;72.25;97025.25;5018632;28;20496;-57
2023/02/23 07:34:09;;;;;;;0.80;0.80;;;;;;;9.21;74.35;97029.91;5017329;28;20050;-53
2023/02/23 07:36:36;;;;;;;0.75;0.75;;;;;;;8.81;74.18;96982.44;5004746;28;20049;-56
2023/02/23 07:39:03;;;;;;;0.75;0.75;;;;;;;9.17;75.36;97031.78;5021826;28;20046;-55
2023/02/23 07:41:30;;;;;;;0.80;0.80;;;;;;;9.55;74.20;97034.59;5037688;28;20107;-56
2023/02/23 07:43:58;;;;;;;0.70;0.70;;;;;;;9.24;75.41;97031.94;5017741;28;20054;-56
2023/02/23 07:46:25;;;;;;;0.70;0.70;;;;;;;8.35;76.99;96966.75;5005318;28;20050;-55
2023/02/23 07:48:52;;;;;;;0.70;0.70;;;;;;;8.60;78.35;97040.72;5022699;28;20126;-54
2023/02/23 07:51:19;;;;;;;0.80;0.80;;;;;;;9.29;76.07;97039.97;5021715;28;20119;-57
2023/02/23 07:53:46;;;;;;;0.80;0.80;;;;;;;9.42;74.17;97044.16;5022978;28;20388;-54
2023/02/23 07:56:13;;;;;;;0.70;0.70;;;;;;;9.93;73.00;97042.88;5021218;28;20050;-56
2023/02/23 07:58:41;;;;;;;0.80;0.80;;;;;;;10.32;70.85;97049.94;5022757;28;20065;-53
2023/02/23 08:01:10;;;;;;;0.80;0.80;;;;;;;10.57;69.08;97034.56;5011853;28;20057;-55
2023/02/23 08:03:38;;;;;;;0.90;0.90;;;;;;;10.82;67.75;97018.34;5013055;28;20077;-57
2023/02/23 08:06:05;;;;;;;0.90;0.90;;;;;;;10.78;66.24;96966.84;5021518;28;20124;-54
2023/02/23 08:08:34;;;;;;;0.90;0.90;;;;;;;11.14;65.42;97036.25;5021170;28;20054;-56
2023/02/23 08:11:03;;;;;;;0.90;0.90;;;;;;;11.54;64.82;97036.41;5020110;28;20141;-57
2023/02/23 08:13:30;;;;;;;1.00;1.00;;;;;;;11.44;63.57;96966.94;5016627;28;20041;-56
2023/02/23 08:15:58;;;;;;;0.90;0.90;;;;;;;11.77;63.40;97034.38;5019534;28;20069;-55
2023/02/23 08:18:25;;;;;;;0.90;0.90;;;;;;;11.90;62.77;97034.91;5021196;28;20115;-56
2023/02/23 08:20:57;;;;;;;1.00;1.00;;;;;;;11.07;65.47;97035.34;5020526;28;20068;-56
2023/02/23 08:23:24;;;;;;;1.00;1.00;;;;;;;11.51;64.24;97028.84;5022767;28;20069;-58
2023/02/23 08:25:52;;;;;;;0.93;0.93;;;;;;;11.30;64.12;96988.94;5008260;28;20136;-54
2023/02/23 08:28:19;;;;;;;0.90;0.90;;;;;;;11.44;62.75;96994.69;5018612;28;20124;-58
2023/02/23 08:30:46;;;;;;;1.00;1.00;;;;;;;10.78;65.18;96977.91;5021296;28;20053;-55
2023/02/23 08:33:13;;;;;;;0.90;0.90;;;;;;;10.67;67.96;97039.47;5024045;28;20050;-57
2023/02/23 08:35:39;;;;;;;0.90;0.90;;;;;;;11.01;67.37;97022.97;5002746;28;20092;-55
2023/02/23 08:38:06;;;;;;;0.90;0.90;;;;;;;11.10;66.82;97012.41;5025332;28;20467;-57
2023/02/23 08:40:33;;;;;;;1.00;1.00;;;;;;;11.72;64.35;97036.66;5019382;28;20462;-55
2023/02/23 08:42:59;;;;;;;0.93;0.93;;;;;;;11.94;63.27;97030.19;5022275;28;20515;-58
2023/02/23 08:45:28;;;;;;;1.10;1.10;;;;;;;10.91;64.98;97010.56;5010179;28;20106;-56
2023/02/23 08:47:55;;;;;;;0.90;0.90;;;;;;;11.61;65.09;97038.47;5033038;28;20546;-54
2023/02/23 08:50:22;;;;;;;1.00;1.00;;;;;;;12.03;63.15;97039.81;5006497;28;20045;-56
2023/02/23 08:52:53;;;;;;;1.00;1.00;;;;;;;12.37;61.78;97040.59;5022860;28;20072;-55
2023/02/23 08:55:20;;;;;;;1.00;1.00;;;;;;;12.09;63.25;97045.84;5006849;28;20061;-56
2023/02/23 08:57:47;;;;;;;1.10;1.10;;;;;;;11.84;62.75;96975.34;5017192;28;20053;-58
2023/02/23 09:00:15;;;;;;;1.10;1.10;;;;;;;12.72;60.73;97027.00;5013046;28;20049;-57
2023/02/23 09:02:44;;;;;;;1.10;1.10;;;;;;;12.45;60.86;97017.25;5015460;28;20054;-60
2023/02/23 09:05:11;;;;;;;1.10;1.10;;;;;;;12.51;60.22;97004.59;5005071;28;20290;-57
2023/02/23 09:07:39;;;;;;;1.10;1.10;;;;;;;12.54;61.62;97042.72;5012515;28;20058;-57
2023/02/23 09:10:07;;;;;;;1.00;1.00;;;;;;;12.95;59.71;97035.94;5004688;28;20084;-57
2023/02/23 09:12:33;;;;;;;1.10;1.10;;;;;;;12.31;61.12;97033.78;5012390;28;20133;-56
2023/02/23 09:15:01;;;;;;;1.10;1.10;;;;;;;12.45;61.17;97028.34;5022619;28;20118;-55
2023/02/23 09:17:27;;;;;;;1.10;1.10;;;;;;;12.66;60.31;97031.31;5023815;28;20618;-57
2023/02/23 09:19:54;;;;;;;1.17;1.17;;;;;;;12.78;60.06;97025.47;5023833;28;20508;-58
2023/02/23 09:22:21;;;;;;;1.10;1.10;;;;;;;13.20;58.77;97025.81;5003370;28;20048;-60
2023/02/23 09:24:48;;;;;;;1.20;1.20;;;;;;;12.92;58.64;96985.84;5005944;28;20057;-56
2023/02/23 09:27:14;;;;;;;1.10;1.10;;;;;;;13.64;56.82;97029.22;5014482;28;20081;-57
2023/02/23 09:29:42;;;;;;;1.10;1.10;;;;;;;13.86;56.04;97027.34;5018321;28;20112;-60
2023/02/23 09:32:11;;;;;;;1.20;1.20;;;;;;;13.50;56.73;97023.59;5024005;28;20528;-58
2023/02/23 09:34:38;;;;;;;1.20;1.20;;;;;;;13.11;58.16;97025.34;5036259;28;20168;-57
2023/02/23 09:37:04;;;;;;;1.20;1.20;;;;;;;13.58;56.79;97025.22;5009112;28;20509;-58
2023/02/23 09:39:31;;;;;;;1.23;1.23;;;;;;;13.76;56.46;96999.44;5021678;28;20049;-59
2023/02/23 09:42:42;;;;;;;1.20;1.20;;;;;;;14.06;55.88;97013.88;5024804;28;20586;-59
2023/02/23 09:45:35;;;;;;;1.20;1.20;;;;;;;14.05;55.02;97015.06;5024547;28;20115;-61
2023/02/23 09:48:16;;;;;;;1.38;1.38;;;;;;;13.71;55.75;97022.91;5021777;28;20137;-61
2023/02/23 09:50:47;;;;;;;1.20;1.20;;;;;;;13.42;56.60;97019.16;5022620;28;20057;-58
2023/02/23 09:53:20;;;;;;;1.10;1.10;;;;;;;13.42;56.51;97021.97;5021516;28;20123;-57
2023/02/23 09:55:48;;;;;;;1.23;1.23;;;;;;;13.75;55.98;97017.34;5024271;28;20052;-57
2023/02/23 09:58:23;;;;;;;1.27;1.27;;;;;;;13.78;56.19;97016.56;5024243;28;20057;-57
2023/02/23 10:01:01;;;;;;;1.17;1.17;;;;;;;13.51;56.66;97016.81;5023008;28;20057;-56
2023/02/23 10:03:38;;;;;;;1.20;1.20;;;;;;;13.72;55.51;97013.34;5019615;28;20108;-56
2023/02/23 10:06:10;;;;;;;1.20;1.20;;;;;;;14.00;55.62;96980.06;5004289;28;20065;-57
2023/02/23 10:09:02;;;;;;;1.30;1.30;;;;;;;14.28;54.48;97008.00;5023900;28;20064;-56
2023/02/23 10:11:43;;;;;;;1.40;1.40;;;;;;;13.89;54.93;97007.06;5021379;28;20057;-59
2023/02/23 10:14:13;;;;;;;1.20;1.20;;;;;;;13.49;56.22;97066.53;5004683;28;20053;-57
2023/02/23 10:17:34;;;;;;;1.02;1.02;;;;;;;13.38;57.00;97004.47;5008438;28;20084;-57
2023/02/23 10:20:31;;;;;;;1.27;1.27;;;;;;;13.81;56.17;96993.50;4985151;28;20464;-56
2023/02/23 10:23:03;;;;;;;1.13;1.13;;;;;;;13.92;55.31;96977.63;5001732;28;20057;-58
2023/02/23 10:25:36;;;;;;;1.35;1.35;;;;;;;14.49;54.39;96991.31;5020011;28;20464;-56
2023/02/23 10:28:02;;;;;;;1.20;1.20;;;;;;;14.19;55.29;96990.03;5024007;28;20092;-58
2023/02/23 10:30:32;;;;;;;1.35;1.35;;;;;;;14.65;53.33;96954.69;5019577;28;20080;-57
2023/02/23 10:33:09;;;;;;;1.38;1.38;;;;;;;14.79;53.26;96976.97;5024308;28;20440;-57
2023/02/23 10:35:38;;;;;;;1.15;1.15;;;;;;;14.80;53.82;96973.78;5024239;28;20057;-57
2023/02/23 10:38:04;;;;;;;1.30;1.30;;;;;;;14.30;53.08;96910.06;5023614;28;20060;-57
2023/02/23 10:40:33;;;;;;;1.30;1.30;;;;;;;15.02;52.91;96967.00;5023130;28;20566;-58
2023/02/23 10:43:01;;;;;;;1.40;1.40;;;;;;;15.33;52.03;96970.13;5022322;28;20508;-58
2023/02/23 10:45:33;;;;;;;1.27;1.27;;;;;;;15.21;52.32;96971.31;5023600;28;20461;-57
2023/02/23 10:48:04;;;;;;;1.38;1.38;;;;;;;14.62;53.71;96967.41;5020300;28;20081;-59
2023/02/23 10:50:37;;;;;;;1.20;1.20;;;;;;;14.72;53.34;96966.63;5014743;28;20155;-62
2023/02/23 10:53:16;;;;;;;1.10;1.10;;;;;;;14.41;54.04;96966.63;5017034;28;20086;-58
2023/02/23 10:55:44;;;;;;;1.20;1.20;;;;;;;14.13;53.01;96880.19;5031695;28;20308;-57
2023/02/23 10:58:18;;;;;;;1.30;1.30;;;;;;;14.94;52.63;96967.38;5017689;28;20049;-60
2023/02/23 11:00:58;;;;;;;1.20;1.20;;;;;;;14.67;53.42;96966.22;5008690;28;20054;-58
2023/02/23 11:03:51;;;;;;;1.27;1.27;;;;;;;15.04;52.75;96955.44;5021644;28;20056;-59
2023/02/23 11:06:41;;;;;;;1.20;1.20;;;;;;;14.99;53.01;96959.41;5017442;28;20224;-61
2023/02/23 11:09:17;;;;;;;1.35;1.35;;;;;;;15.55;51.95;96955.72;5008125;28;20539;-59
2023/02/23 11:12:02;;;;;;;1.40;1.40;;;;;;;15.86;50.99;96996.66;5018840;28;20460;-63
2023/02/23 11:14:30;;;;;;;1.50;1.50;;;;;;;15.89;50.91;96942.78;5032190;28;20142;-58
2023/02/23 11:16:59;;;;;;;1.35;1.35;;;;;;;15.37;52.40;96924.25;5008740;28;20471;-59
2023/02/23 11:19:36;;;;;;;1.63;1.63;;;;;;;16.21;50.07;96946.19;5012180;28;20527;-60
2023/02/23 11:22:05;;;;;;;1.45;1.45;;;;;;;16.39;49.99;96952.44;5010192;28;20045;-59
2023/02/23 11:24:38;;;;;;;1.55;1.55;;;;;;;15.89;50.29;96920.44;5002454;28;20072;-63
2023/02/23 11:27:18;;;;;;;1.33;1.33;;;;;;;15.27;52.52;96916.69;5010093;28;20049;-63
2023/02/23 11:29:46;;;;;;;1.40;1.40;;;;;;;14.99;51.27;96791.25;5016725;28;20061;-60
2023/02/23 11:32:30;;;;;;;1.50;1.50;;;;;;;15.36;52.38;96889.16;5007736;28;20042;-61
2023/02/23 11:35:15;;;;;;;1.30;1.30;;;;;;;15.84;51.30;96937.63;5020574;28;20119;-61
2023/02/23 11:37:42;;;;;;;1.50;1.50;;;;;;;16.10;51.07;96928.69;5020146;28;20084;-63
2023/02/23 11:40:18;;;;;;;1.50;1.50;;;;;;;16.26;50.35;96931.78;5018124;28;20121;-61
2023/02/23 11:43:05;;;;;;;1.50;1.50;;;;;;;16.63;49.95;96934.72;5032889;28;20152;-59
2023/02/23 11:45:57;;;;;;;1.60;1.60;;;;;;;15.44;51.59;96885.19;5007485;28;20053;-59
2023/02/23 11:48:26;;;;;;;1.30;1.30;;;;;;;16.40;50.34;96937.28;5012354;28;20053;-61
2023/02/23 11:50:55;;;;;;;1.50;1.50;;;;;;;15.59;51.84;96936.94;5018997;28;20068;-60
2023/02/23 11:53:31;;;;;;;1.42;1.42;;;;;;;15.99;51.81;96927.97;5017109;28;20053;-62
2023/02/23 11:56:01;;;;;;;1.48;1.48;;;;;;;15.87;51.76;96941.59;5018405;28;20050;-56
2023/02/23 11:58:38;;;;;;;1.70;1.70;;;;;;;16.08;51.25;96935.88;5022350;28;20499;-61
2023/02/23 12:01:12;;;;;;;1.48;1.48;;;;;;;16.13;51.62;96938.25;5022416;28;20073;-65
2023/02/23 12:03:50;;;;;;;1.80;1.80;;;;;;;16.04;51.43;96896.81;5023156;28;20123;-58
2023/02/23 12:06:38;;;;;;;1.60;1.60;;;;;;;16.29;51.41;96908.59;5024498;28;20520;-60
2023/02/23 12:09:18;;;;;;;1.40;1.40;;;;;;;15.69;50.98;96818.81;5025388;28;20053;-63
2023/02/23 12:11:51;;;;;;;1.60;1.60;;;;;;;16.16;50.75;96832.03;5026633;28;20089;-58
2023/02/23 12:14:36;;;;;;;;;;;;;;;17.03;50.07;96943.53;5017274;28;20134;-59
2023/02/23 12:17:11;;;;;;;1.77;1.77;;;;;;;16.73;50.56;96904.25;5013708;28;19951;-58
2023/02/23 12:19:46;;;;;;;1.73;1.73;;;;;;;16.94;49.98;96895.66;5017467;28;20081;-59
2023/02/23 12:22:17;;;;;;;1.88;1.88;;;;;;;17.05;50.05;96921.53;5012387;28;20111;-59
2023/02/23 12:25:10;;;;;;;1.70;1.70;;;;;;;17.12;50.23;96935.47;5041361;28;20049;-61
2023/02/23 12:27:40;;;;;;;1.50;1.50;;;;;;;17.36;49.62;96932.38;5009842;28;20100;-57
2023/02/23 12:30:19;;;;;;;1.80;1.80;;;;;;;17.18;50.04;96931.00;5013505;28;20049;-56
2023/02/23 12:33:32;;;;;;;1.60;1.60;;;;;;;17.02;50.38;96923.16;5023905;28;20136;-57
2023/02/23 12:36:38;;;;;;;1.58;1.58;;;;;;;16.48;51.51;96944.44;5020449;28;20046;-63
2023/02/23 12:39:29;;;;;;;1.70;1.70;;;;;;;16.66;51.53;96938.66;5020672;28;20053;-56
2023/02/23 12:42:11;;;;;;;1.58;1.58;;;;;;;16.76;51.21;96942.59;5022162;28;20049;-59
2023/02/23 12:44:45;;;;;;;1.63;1.63;;;;;;;16.34;51.70;96922.13;5026178;28;20524;-57
2023/02/23 12:47:31;;;;;;;1.52;1.52;;;;;;;16.36;52.09;96947.66;5021081;28;20116;-59
2023/02/23 12:50:06;;;;;;;1.60;1.60;;;;;;;16.32;52.61;96941.31;5025076;28;20085;-59
2023/02/23 12:52:37;;;;;;;1.63;1.63;;;;;;;16.43;52.29;96930.84;5016881;28;20076;-59
2023/02/23 12:55:10;;;;;;;1.60;1.60;;;;;;;16.35;52.42;96946.09;5006150;28;20046;-58
2023/02/23 12:57:43;;;;;;;1.50;1.50;;;;;;;16.46;52.38;96940.44;5017472;28;20053;-60
2023/02/23 13:00:31;;;;;;;1.48;1.48;;;;;;;16.07;52.90;96945.47;5024384;28;20065;-63
2023/02/23 13:03:29;;;;;;;1.45;1.45;;;;;;;16.37;52.60;96954.88;5024785;28;20057;-60
2023/02/23 13:06:10;;;;;;;1.38;1.38;;;;;;;16.31;52.46;96945.31;5023567;28;20061;-59
2023/02/23 13:08:49;;;;;;;1.40;1.40;;;;;;;16.30;52.88;96949.31;5021667;28;20077;-59
2023/02/23 13:11:39;;;;;;;1.50;1.50;;;;;;;16.44;52.64;96951.19;5024217;28;20058;-57
2023/02/23 13:14:26;;;;;;;1.35;1.35;;;;;;;16.24;53.14;96956.56;5023292;28;20464;-58
2023/02/23 13:17:01;;;;;;;1.63;1.63;;;;;;;15.98;53.55;96953.53;5008728;28;20046;-58
2023/02/23 13:19:46;;;;;;;1.50;1.50;;;;;;;15.95;53.38;96946.72;5004727;28;20139;-57